Glouster Point, Virginia
Current Conditions -  °F | °C
As of 3:54 AM on Saturday 20 Dec 2014 (Local Time) from KPHF Reporting Station
Clear Clear  
Wind Chill: 35°   Ceiling: Unl
Heat Index: 35°   Visibility: 10mi
Dew Point: 25°   Wind: 3mph
Humidity: 67%   Direction: 360°N
Pressure: 30.26"   Gusts: NA
Location:  37.2577°N, 76.4965°W
Report Text: KPHF 200854Z 36003KT 10SM CLR 02/M04 A3026 RMK AO2 SLP248 T00171039 50007
Loading
Personal Weather Stations






























Interactive Weather Map New forecast layout! Learn more

10-Day Weather Forecast

Advertisements
Track Severe Weather on mobile